sensor_id;sensor_type;location;lat;lon;timestamp;temperature;humidity
41939;DHT22;23057;48.554;14.454;2023-05-10T00:01:06;9.40;99.90
41939;DHT22;23057;48.554;14.454;2023-05-10T00:03:37;9.30;99.90
41939;DHT22;23057;48.554;14.454;2023-05-10T00:06:08;9.40;99.90
41939;DHT22;23057;48.554;14.454;2023-05-10T00:08:39;9.30;99.90
41939;DHT22;23057;48.554;14.454;2023-05-10T00:11:09;9.30;99.90
41939;DHT22;23057;48.554;14.454;2023-05-10T00:13:40;9.30;99.90
41939;DHT22;23057;48.554;14.454;2023-05-10T00:16:11;9.20;99.90
41939;DHT22;23057;48.554;14.454;2023-05-10T00:18:43;9.20;99.90
41939;DHT22;23057;48.554;14.454;2023-05-10T00:21:14;9.30;99.90
41939;DHT22;23057;48.554;14.454;2023-05-10T00:23:44;9.20;99.90
41939;DHT22;23057;48.554;14.454;2023-05-10T00:26:15;9.20;99.90
41939;DHT22;23057;48.554;14.454;2023-05-10T00:28:47;9.20;99.90
41939;DHT22;23057;48.554;14.454;2023-05-10T00:31:17;9.20;99.90
41939;DHT22;23057;48.554;14.454;2023-05-10T00:33:48;9.20;99.90
41939;DHT22;23057;48.554;14.454;2023-05-10T00:36:19;9.10;99.90
41939;DHT22;23057;48.554;14.454;2023-05-10T00:38:51;8.80;99.90
41939;DHT22;23057;48.554;14.454;2023-05-10T00:41:21;8.60;99.90
41939;DHT22;23057;48.554;14.454;2023-05-10T00:43:52;8.50;99.90
41939;DHT22;23057;48.554;14.454;2023-05-10T00:46:23;8.40;99.90
41939;DHT22;23057;48.554;14.454;2023-05-10T00:48:55;8.20;99.90
41939;DHT22;23057;48.554;14.454;2023-05-10T00:51:26;8.00;99.90
41939;DHT22;23057;48.554;14.454;2023-05-10T00:53:57;7.80;1.00
41939;DHT22;23057;48.554;14.454;2023-05-10T00:56:28;7.70;1.00
41939;DHT22;23057;48.554;14.454;2023-05-10T00:59:00;7.60;89.70
41939;DHT22;23057;48.554;14.454;2023-05-10T01:01:31;7.50;99.90
41939;DHT22;23057;48.554;14.454;2023-05-10T01:04:02;7.70;99.90
41939;DHT22;23057;48.554;14.454;2023-05-10T01:06:34;7.40;99.90
41939;DHT22;23057;48.554;14.454;2023-05-10T01:09:04;7.00;99.90
41939;DHT22;23057;48.554;14.454;2023-05-10T01:11:37;6.80;1.00
41939;DHT22;23057;48.554;14.454;2023-05-10T01:14:10;6.60;91.70
41939;DHT22;23057;48.554;14.454;2023-05-10T01:16:40;6.50;99.90
41939;DHT22;23057;48.554;14.454;2023-05-10T01:19:25;6.40;99.90
41939;DHT22;23057;48.554;14.454;2023-05-10T01:31:16;6.10;99.90
41939;DHT22;23057;48.554;14.454;2023-05-10T01:34:16;6.20;99.90
41939;DHT22;23057;48.554;14.454;2023-05-10T01:37:13;6.20;99.90
41939;DHT22;23057;48.554;14.454;2023-05-10T01:40:39;6.30;99.90
41939;DHT22;23057;48.554;14.454;2023-05-10T01:43:28;6.10;99.90
41939;DHT22;23057;48.554;14.454;2023-05-10T01:46:13;5.80;99.90
41939;DHT22;23057;48.554;14.454;2023-05-10T01:48:58;5.80;99.90
41939;DHT22;23057;48.554;14.454;2023-05-10T01:51:38;5.80;99.90
41939;DHT22;23057;48.554;14.454;2023-05-10T01:54:19;5.70;99.90
41939;DHT22;23057;48.554;14.454;2023-05-10T01:56:55;5.60;99.90
41939;DHT22;23057;48.554;14.454;2023-05-10T01:59:36;5.20;99.90
41939;DHT22;23057;48.554;14.454;2023-05-10T02:02:13;5.00;99.90
41939;DHT22;23057;48.554;14.454;2023-05-10T02:04:47;5.10;99.90
41939;DHT22;23057;48.554;14.454;2023-05-10T02:07:21;5.30;99.90
41939;DHT22;23057;48.554;14.454;2023-05-10T02:09:54;5.50;99.90
41939;DHT22;23057;48.554;14.454;2023-05-10T02:12:25;5.50;99.90
41939;DHT22;23057;48.554;14.454;2023-05-10T02:14:59;5.60;99.90
41939;DHT22;23057;48.554;14.454;2023-05-10T02:17:35;5.60;99.90
41939;DHT22;23057;48.554;14.454;2023-05-10T02:20:09;5.60;99.90
41939;DHT22;23057;48.554;14.454;2023-05-10T02:22:42;5.70;99.90
41939;DHT22;23057;48.554;14.454;2023-05-10T02:25:17;5.50;99.90
41939;DHT22;23057;48.554;14.454;2023-05-10T02:27:51;5.30;99.90
41939;DHT22;23057;48.554;14.454;2023-05-10T02:30:27;5.20;99.90
41939;DHT22;23057;48.554;14.454;2023-05-10T02:33:01;5.20;99.90
41939;DHT22;23057;48.554;14.454;2023-05-10T02:35:36;5.10;99.90
41939;DHT22;23057;48.554;14.454;2023-05-10T02:38:08;5.00;99.90
41939;DHT22;23057;48.554;14.454;2023-05-10T02:40:41;5.10;99.90
41939;DHT22;23057;48.554;14.454;2023-05-10T02:43:14;5.20;99.90
41939;DHT22;23057;48.554;14.454;2023-05-10T02:45:48;5.20;99.90
41939;DHT22;23057;48.554;14.454;2023-05-10T02:48:19;5.20;99.90
41939;DHT22;23057;48.554;14.454;2023-05-10T02:50:50;5.20;99.90
41939;DHT22;23057;48.554;14.454;2023-05-10T02:53:30;5.20;99.90
41939;DHT22;23057;48.554;14.454;2023-05-10T02:56:14;5.10;99.90
41939;DHT22;23057;48.554;14.454;2023-05-10T02:58:55;5.10;99.90
41939;DHT22;23057;48.554;14.454;2023-05-10T03:01:26;5.10;99.90
41939;DHT22;23057;48.554;14.454;2023-05-10T03:03:56;5.10;99.90
41939;DHT22;23057;48.554;14.454;2023-05-10T03:06:27;5.20;99.90
41939;DHT22;23057;48.554;14.454;2023-05-10T03:08:59;5.20;99.90
41939;DHT22;23057;48.554;14.454;2023-05-10T03:18:15;5.10;99.90
41939;DHT22;23057;48.554;14.454;2023-05-10T03:20:47;5.00;99.90
41939;DHT22;23057;48.554;14.454;2023-05-10T03:23:34;5.10;99.90
41939;DHT22;23057;48.554;14.454;2023-05-10T03:26:09;5.00;99.90
41939;DHT22;23057;48.554;14.454;2023-05-10T03:28:42;5.00;99.90
41939;DHT22;23057;48.554;14.454;2023-05-10T03:31:14;5.00;99.90
41939;DHT22;23057;48.554;14.454;2023-05-10T03:33:48;5.10;99.90
41939;DHT22;23057;48.554;14.454;2023-05-10T03:36:20;5.10;99.90
41939;DHT22;23057;48.554;14.454;2023-05-10T03:38:51;5.10;99.90
41939;DHT22;23057;48.554;14.454;2023-05-10T03:41:22;5.00;99.90
41939;DHT22;23057;48.554;14.454;2023-05-10T03:43:53;5.10;99.90
41939;DHT22;23057;48.554;14.454;2023-05-10T03:46:23;5.20;99.90
41939;DHT22;23057;48.554;14.454;2023-05-10T03:48:54;5.20;99.90
41939;DHT22;23057;48.554;14.454;2023-05-10T03:51:25;5.40;99.90
41939;DHT22;23057;48.554;14.454;2023-05-10T03:53:58;6.50;99.90
41939;DHT22;23057;48.554;14.454;2023-05-10T03:56:29;7.50;99.90
41939;DHT22;23057;48.554;14.454;2023-05-10T03:59:00;8.30;99.90
41939;DHT22;23057;48.554;14.454;2023-05-10T04:01:31;8.90;99.90
41939;DHT22;23057;48.554;14.454;2023-05-10T04:04:01;9.60;99.90
41939;DHT22;23057;48.554;14.454;2023-05-10T04:06:32;10.60;1.00
41939;DHT22;23057;48.554;14.454;2023-05-10T04:09:03;11.50;99.90
41939;DHT22;23057;48.554;14.454;2023-05-10T04:11:34;11.70;37.90
41939;DHT22;23057;48.554;14.454;2023-05-10T04:14:05;11.50;11.70
41939;DHT22;23057;48.554;14.454;2023-05-10T04:16:36;12.40;1.00
41939;DHT22;23057;48.554;14.454;2023-05-10T04:19:06;12.50;1.00
41939;DHT22;23057;48.554;14.454;2023-05-10T04:21:37;13.30;1.00
41939;DHT22;23057;48.554;14.454;2023-05-10T04:24:08;14.20;1.00
41939;DHT22;23057;48.554;14.454;2023-05-10T04:26:39;15.30;99.90
41939;DHT22;23057;48.554;14.454;2023-05-10T04:29:09;15.40;99.90
41939;DHT22;23057;48.554;14.454;2023-05-10T04:31:40;15.80;99.90
41939;DHT22;23057;48.554;14.454;2023-05-10T04:34:11;16.10;99.90
41939;DHT22;23057;48.554;14.454;2023-05-10T04:36:41;15.90;99.90
41939;DHT22;23057;48.554;14.454;2023-05-10T04:39:12;16.10;99.90
41939;DHT22;23057;48.554;14.454;2023-05-10T04:41:44;15.70;99.90
41939;DHT22;23057;48.554;14.454;2023-05-10T04:44:14;16.10;99.90
41939;DHT22;23057;48.554;14.454;2023-05-10T04:46:45;16.10;99.90
41939;DHT22;23057;48.554;14.454;2023-05-10T04:49:16;16.20;99.90
41939;DHT22;23057;48.554;14.454;2023-05-10T04:51:48;15.30;99.90
41939;DHT22;23057;48.554;14.454;2023-05-10T04:54:18;13.80;99.90
41939;DHT22;23057;48.554;14.454;2023-05-10T04:56:49;13.10;99.90
41939;DHT22;23057;48.554;14.454;2023-05-10T04:59:20;12.70;1.00
41939;DHT22;23057;48.554;14.454;2023-05-10T05:01:51;12.80;1.00
41939;DHT22;23057;48.554;14.454;2023-05-10T05:04:21;12.80;1.00
41939;DHT22;23057;48.554;14.454;2023-05-10T05:06:53;13.20;1.00
41939;DHT22;23057;48.554;14.454;2023-05-10T05:09:24;12.70;1.00
41939;DHT22;23057;48.554;14.454;2023-05-10T05:11:55;12.30;4.70
41939;DHT22;23057;48.554;14.454;2023-05-10T05:14:25;13.40;1.00
41939;DHT22;23057;48.554;14.454;2023-05-10T05:16:56;15.20;1.00
41939;DHT22;23057;48.554;14.454;2023-05-10T05:19:27;16.90;99.90
41939;DHT22;23057;48.554;14.454;2023-05-10T05:21:58;18.30;99.90
41939;DHT22;23057;48.554;14.454;2023-05-10T05:24:28;17.40;99.90
41939;DHT22;23057;48.554;14.454;2023-05-10T05:26:59;17.60;99.90
41939;DHT22;23057;48.554;14.454;2023-05-10T05:29:31;17.70;99.90
41939;DHT22;23057;48.554;14.454;2023-05-10T05:32:02;17.40;99.90
41939;DHT22;23057;48.554;14.454;2023-05-10T05:34:33;15.20;99.90
41939;DHT22;23057;48.554;14.454;2023-05-10T05:37:04;16.00;99.90
41939;DHT22;23057;48.554;14.454;2023-05-10T05:39:35;16.70;99.90
41939;DHT22;23057;48.554;14.454;2023-05-10T05:42:06;16.40;99.90
41939;DHT22;23057;48.554;14.454;2023-05-10T05:44:37;16.40;99.90
41939;DHT22;23057;48.554;14.454;2023-05-10T05:47:08;17.50;99.90
41939;DHT22;23057;48.554;14.454;2023-05-10T05:49:39;17.40;99.90
41939;DHT22;23057;48.554;14.454;2023-05-10T05:52:10;17.00;99.90
41939;DHT22;23057;48.554;14.454;2023-05-10T05:54:41;17.80;99.90
41939;DHT22;23057;48.554;14.454;2023-05-10T05:57:12;17.00;99.90
41939;DHT22;23057;48.554;14.454;2023-05-10T05:59:43;15.70;99.90
41939;DHT22;23057;48.554;14.454;2023-05-10T06:02:14;16.00;99.90
41939;DHT22;23057;48.554;14.454;2023-05-10T06:04:45;16.40;99.90
41939;DHT22;23057;48.554;14.454;2023-05-10T06:07:16;15.90;99.90
41939;DHT22;23057;48.554;14.454;2023-05-10T06:09:47;14.50;99.90
41939;DHT22;23057;48.554;14.454;2023-05-10T06:12:18;14.00;99.90
41939;DHT22;23057;48.554;14.454;2023-05-10T06:14:48;14.00;99.90
41939;DHT22;23057;48.554;14.454;2023-05-10T06:17:19;13.70;99.90
41939;DHT22;23057;48.554;14.454;2023-05-10T06:19:51;13.50;99.90
41939;DHT22;23057;48.554;14.454;2023-05-10T06:22:22;13.10;99.90
41939;DHT22;23057;48.554;14.454;2023-05-10T06:24:53;12.80;1.00
41939;DHT22;23057;48.554;14.454;2023-05-10T06:27:24;12.60;1.00
41939;DHT22;23057;48.554;14.454;2023-05-10T06:29:54;12.80;1.00
41939;DHT22;23057;48.554;14.454;2023-05-10T06:32:25;12.80;1.00
41939;DHT22;23057;48.554;14.454;2023-05-10T06:34:56;12.80;1.00
41939;DHT22;23057;48.554;14.454;2023-05-10T06:37:28;12.60;1.00
41939;DHT22;23057;48.554;14.454;2023-05-10T06:39:58;12.50;1.00
41939;DHT22;23057;48.554;14.454;2023-05-10T06:42:29;12.70;1.00
41939;DHT22;23057;48.554;14.454;2023-05-10T06:45:00;12.90;1.00
41939;DHT22;23057;48.554;14.454;2023-05-10T06:47:31;12.70;1.00
41939;DHT22;23057;48.554;14.454;2023-05-10T06:50:03;12.50;1.00
41939;DHT22;23057;48.554;14.454;2023-05-10T06:52:36;12.40;1.00
41939;DHT22;23057;48.554;14.454;2023-05-10T06:55:07;12.30;18.60
41939;DHT22;23057;48.554;14.454;2023-05-10T06:57:39;12.40;43.60
41939;DHT22;23057;48.554;14.454;2023-05-10T07:00:10;12.30;29.30
41939;DHT22;23057;48.554;14.454;2023-05-10T07:02:41;12.20;30.40
41939;DHT22;23057;48.554;14.454;2023-05-10T07:05:12;12.10;56.00
41939;DHT22;23057;48.554;14.454;2023-05-10T07:07:44;12.20;54.30
41939;DHT22;23057;48.554;14.454;2023-05-10T07:10:14;12.30;63.50
41939;DHT22;23057;48.554;14.454;2023-05-10T07:12:45;12.30;65.00
41939;DHT22;23057;48.554;14.454;2023-05-10T07:15:16;12.30;77.10
41939;DHT22;23057;48.554;14.454;2023-05-10T07:17:47;12.10;91.40
41939;DHT22;23057;48.554;14.454;2023-05-10T07:20:17;12.10;96.70
41939;DHT22;23057;48.554;14.454;2023-05-10T07:22:49;12.10;98.70
41939;DHT22;23057;48.554;14.454;2023-05-10T07:25:19;12.20;99.90
41939;DHT22;23057;48.554;14.454;2023-05-10T07:27:50;12.10;99.90
41939;DHT22;23057;48.554;14.454;2023-05-10T07:30:21;12.00;97.80
41939;DHT22;23057;48.554;14.454;2023-05-10T07:32:52;11.90;99.90
41939;DHT22;23057;48.554;14.454;2023-05-10T07:35:22;11.90;99.90
41939;DHT22;23057;48.554;14.454;2023-05-10T07:37:53;11.90;99.90
41939;DHT22;23057;48.554;14.454;2023-05-10T07:40:24;11.80;99.90
41939;DHT22;23057;48.554;14.454;2023-05-10T07:42:55;11.60;99.90
41939;DHT22;23057;48.554;14.454;2023-05-10T07:45:26;11.50;99.90
41939;DHT22;23057;48.554;14.454;2023-05-10T07:47:56;11.40;99.90
41939;DHT22;23057;48.554;14.454;2023-05-10T07:50:27;11.40;99.90
41939;DHT22;23057;48.554;14.454;2023-05-10T07:52:58;11.20;99.90
41939;DHT22;23057;48.554;14.454;2023-05-10T07:55:29;11.30;99.90
41939;DHT22;23057;48.554;14.454;2023-05-10T07:58:00;11.40;99.90
41939;DHT22;23057;48.554;14.454;2023-05-10T08:00:34;11.30;99.90
41939;DHT22;23057;48.554;14.454;2023-05-10T08:03:05;11.40;1.00
41939;DHT22;23057;48.554;14.454;2023-05-10T08:05:35;11.30;1.00
41939;DHT22;23057;48.554;14.454;2023-05-10T08:08:06;11.20;1.00
41939;DHT22;23057;48.554;14.454;2023-05-10T08:10:37;11.20;18.30
41939;DHT22;23057;48.554;14.454;2023-05-10T08:13:08;11.30;64.20
41939;DHT22;23057;48.554;14.454;2023-05-10T08:15:38;11.20;99.90
41939;DHT22;23057;48.554;14.454;2023-05-10T08:18:09;11.20;99.90
41939;DHT22;23057;48.554;14.454;2023-05-10T08:20:40;11.10;99.90
41939;DHT22;23057;48.554;14.454;2023-05-10T08:23:14;11.40;99.90
41939;DHT22;23057;48.554;14.454;2023-05-10T08:25:45;11.30;99.90
41939;DHT22;23057;48.554;14.454;2023-05-10T08:28:16;11.40;99.90
41939;DHT22;23057;48.554;14.454;2023-05-10T08:30:47;11.40;62.40
41939;DHT22;23057;48.554;14.454;2023-05-10T08:33:18;11.50;15.10
41939;DHT22;23057;48.554;14.454;2023-05-10T08:35:49;11.70;1.00
41939;DHT22;23057;48.554;14.454;2023-05-10T08:38:19;11.60;58.80
41939;DHT22;23057;48.554;14.454;2023-05-10T08:40:50;11.60;99.90
41939;DHT22;23057;48.554;14.454;2023-05-10T08:43:29;11.70;99.90
41939;DHT22;23057;48.554;14.454;2023-05-10T08:46:00;11.40;99.90
41939;DHT22;23057;48.554;14.454;2023-05-10T08:48:33;11.60;99.90
41939;DHT22;23057;48.554;14.454;2023-05-10T08:51:05;11.80;99.90
41939;DHT22;23057;48.554;14.454;2023-05-10T08:53:38;11.80;99.90
41939;DHT22;23057;48.554;14.454;2023-05-10T08:56:09;11.70;1.00
41939;DHT22;23057;48.554;14.454;2023-05-10T08:58:40;11.70;1.00
41939;DHT22;23057;48.554;14.454;2023-05-10T09:01:11;11.60;1.00
41939;DHT22;23057;48.554;14.454;2023-05-10T09:03:44;11.40;80.00
41939;DHT22;23057;48.554;14.454;2023-05-10T09:06:18;11.30;99.90
41939;DHT22;23057;48.554;14.454;2023-05-10T09:08:49;11.40;99.90
41939;DHT22;23057;48.554;14.454;2023-05-10T09:11:22;11.50;99.90
41939;DHT22;23057;48.554;14.454;2023-05-10T09:13:54;11.50;99.90
41939;DHT22;23057;48.554;14.454;2023-05-10T09:16:25;11.60;99.90
41939;DHT22;23057;48.554;14.454;2023-05-10T09:18:56;11.40;99.90
41939;DHT22;23057;48.554;14.454;2023-05-10T09:21:27;11.60;1.00
41939;DHT22;23057;48.554;14.454;2023-05-10T09:23:58;11.70;99.90
41939;DHT22;23057;48.554;14.454;2023-05-10T09:26:34;11.80;99.90
41939;DHT22;23057;48.554;14.454;2023-05-10T09:29:15;11.90;99.90
41939;DHT22;23057;48.554;14.454;2023-05-10T09:31:50;12.20;99.90
41939;DHT22;23057;48.554;14.454;2023-05-10T09:34:28;12.20;99.90
41939;DHT22;23057;48.554;14.454;2023-05-10T09:37:02;12.20;74.50
41939;DHT22;23057;48.554;14.454;2023-05-10T09:39:36;12.10;28.60
41939;DHT22;23057;48.554;14.454;2023-05-10T09:42:08;11.90;99.90
41939;DHT22;23057;48.554;14.454;2023-05-10T09:44:40;11.80;99.90
41939;DHT22;23057;48.554;14.454;2023-05-10T09:47:16;11.80;99.90
41939;DHT22;23057;48.554;14.454;2023-05-10T09:49:49;12.00;1.00
41939;DHT22;23057;48.554;14.454;2023-05-10T09:52:21;12.00;1.00
41939;DHT22;23057;48.554;14.454;2023-05-10T09:54:53;12.00;1.00
41939;DHT22;23057;48.554;14.454;2023-05-10T09:57:24;12.20;42.30
41939;DHT22;23057;48.554;14.454;2023-05-10T09:59:56;12.10;9.80
41939;DHT22;23057;48.554;14.454;2023-05-10T10:02:28;11.90;99.90
41939;DHT22;23057;48.554;14.454;2023-05-10T10:05:00;12.10;99.90
41939;DHT22;23057;48.554;14.454;2023-05-10T10:07:33;12.00;99.90
41939;DHT22;23057;48.554;14.454;2023-05-10T10:10:05;12.10;99.90
41939;DHT22;23057;48.554;14.454;2023-05-10T10:12:41;11.90;99.90
41939;DHT22;23057;48.554;14.454;2023-05-10T10:15:12;11.90;99.90
41939;DHT22;23057;48.554;14.454;2023-05-10T10:17:43;12.00;99.90
41939;DHT22;23057;48.554;14.454;2023-05-10T10:20:16;11.80;99.90
41939;DHT22;23057;48.554;14.454;2023-05-10T10:22:48;11.70;99.90
41939;DHT22;23057;48.554;14.454;2023-05-10T10:25:19;11.80;99.90
41939;DHT22;23057;48.554;14.454;2023-05-10T10:36:11;12.00;99.90
41939;DHT22;23057;48.554;14.454;2023-05-10T10:41:29;12.00;99.90
41939;DHT22;23057;48.554;14.454;2023-05-10T10:57:52;12.20;99.90
41939;DHT22;23057;48.554;14.454;2023-05-10T11:03:06;12.50;99.90
41939;DHT22;23057;48.554;14.454;2023-05-10T11:08:28;12.20;99.90
41939;DHT22;23057;48.554;14.454;2023-05-10T11:11:05;12.20;99.90
41939;DHT22;23057;48.554;14.454;2023-05-10T11:13:38;12.20;99.90
41939;DHT22;23057;48.554;14.454;2023-05-10T11:21:27;12.00;99.90
41939;DHT22;23057;48.554;14.454;2023-05-10T11:24:00;12.20;99.90
41939;DHT22;23057;48.554;14.454;2023-05-10T11:26:35;12.40;99.90
41939;DHT22;23057;48.554;14.454;2023-05-10T11:29:07;12.30;99.90
41939;DHT22;23057;48.554;14.454;2023-05-10T11:31:44;12.10;99.90
41939;DHT22;23057;48.554;14.454;2023-05-10T11:34:26;12.10;99.90
41939;DHT22;23057;48.554;14.454;2023-05-10T11:37:00;12.00;99.90
41939;DHT22;23057;48.554;14.454;2023-05-10T11:39:31;12.00;99.90
41939;DHT22;23057;48.554;14.454;2023-05-10T11:42:03;12.20;99.90
41939;DHT22;23057;48.554;14.454;2023-05-10T11:44:34;12.40;99.90
41939;DHT22;23057;48.554;14.454;2023-05-10T11:47:05;12.70;99.90
41939;DHT22;23057;48.554;14.454;2023-05-10T11:49:36;12.70;99.90
41939;DHT22;23057;48.554;14.454;2023-05-10T11:52:07;12.50;99.90
41939;DHT22;23057;48.554;14.454;2023-05-10T11:54:51;12.80;99.90
41939;DHT22;23057;48.554;14.454;2023-05-10T11:57:25;12.80;99.90
41939;DHT22;23057;48.554;14.454;2023-05-10T11:59:57;12.90;99.90
41939;DHT22;23057;48.554;14.454;2023-05-10T12:02:28;12.80;99.90
41939;DHT22;23057;48.554;14.454;2023-05-10T12:05:00;12.70;99.90
41939;DHT22;23057;48.554;14.454;2023-05-10T12:07:33;12.80;99.90
41939;DHT22;23057;48.554;14.454;2023-05-10T12:10:07;12.70;99.90
41939;DHT22;23057;48.554;14.454;2023-05-10T12:12:45;12.80;99.90
41939;DHT22;23057;48.554;14.454;2023-05-10T12:15:21;12.60;99.90
41939;DHT22;23057;48.554;14.454;2023-05-10T12:17:54;12.60;99.90
41939;DHT22;23057;48.554;14.454;2023-05-10T12:20:27;12.60;99.90
41939;DHT22;23057;48.554;14.454;2023-05-10T12:22:58;12.60;99.90
41939;DHT22;23057;48.554;14.454;2023-05-10T12:25:32;12.70;99.90
41939;DHT22;23057;48.554;14.454;2023-05-10T12:28:06;12.80;99.90
41939;DHT22;23057;48.554;14.454;2023-05-10T12:30:39;12.90;99.90
41939;DHT22;23057;48.554;14.454;2023-05-10T12:33:11;13.00;99.90
41939;DHT22;23057;48.554;14.454;2023-05-10T12:35:46;12.90;99.90
41939;DHT22;23057;48.554;14.454;2023-05-10T12:38:32;12.70;99.90
41939;DHT22;23057;48.554;14.454;2023-05-10T12:41:06;12.60;99.90
41939;DHT22;23057;48.554;14.454;2023-05-10T12:43:40;12.90;99.90
41939;DHT22;23057;48.554;14.454;2023-05-10T12:46:12;12.70;99.90
41939;DHT22;23057;48.554;14.454;2023-05-10T12:48:45;12.80;99.90
41939;DHT22;23057;48.554;14.454;2023-05-10T12:51:19;13.00;99.90
41939;DHT22;23057;48.554;14.454;2023-05-10T12:53:52;12.90;99.90
41939;DHT22;23057;48.554;14.454;2023-05-10T12:56:23;13.00;99.90
41939;DHT22;23057;48.554;14.454;2023-05-10T12:58:53;13.10;99.90
41939;DHT22;23057;48.554;14.454;2023-05-10T13:01:24;13.00;99.90
41939;DHT22;23057;48.554;14.454;2023-05-10T13:03:55;13.00;99.90
41939;DHT22;23057;48.554;14.454;2023-05-10T13:06:26;13.10;99.90
41939;DHT22;23057;48.554;14.454;2023-05-10T13:08:56;13.10;99.90
41939;DHT22;23057;48.554;14.454;2023-05-10T13:11:27;12.90;99.90
41939;DHT22;23057;48.554;14.454;2023-05-10T13:13:58;13.00;99.90
41939;DHT22;23057;48.554;14.454;2023-05-10T13:16:29;12.90;99.90
41939;DHT22;23057;48.554;14.454;2023-05-10T13:19:00;12.80;99.90
41939;DHT22;23057;48.554;14.454;2023-05-10T13:21:31;12.80;99.90
41939;DHT22;23057;48.554;14.454;2023-05-10T13:24:02;12.80;99.90
41939;DHT22;23057;48.554;14.454;2023-05-10T13:26:33;12.80;99.90
41939;DHT22;23057;48.554;14.454;2023-05-10T13:29:04;12.70;99.90
41939;DHT22;23057;48.554;14.454;2023-05-10T13:31:35;12.70;99.90
41939;DHT22;23057;48.554;14.454;2023-05-10T13:34:06;12.80;99.90
41939;DHT22;23057;48.554;14.454;2023-05-10T13:36:36;12.80;99.90
41939;DHT22;23057;48.554;14.454;2023-05-10T13:39:07;13.20;99.90
41939;DHT22;23057;48.554;14.454;2023-05-10T13:41:38;13.20;99.90
41939;DHT22;23057;48.554;14.454;2023-05-10T13:44:11;13.40;99.90
41939;DHT22;23057;48.554;14.454;2023-05-10T13:46:44;13.30;99.90
41939;DHT22;23057;48.554;14.454;2023-05-10T13:49:14;13.00;99.90
41939;DHT22;23057;48.554;14.454;2023-05-10T13:51:45;13.00;99.90
41939;DHT22;23057;48.554;14.454;2023-05-10T13:54:16;13.20;99.90
41939;DHT22;23057;48.554;14.454;2023-05-10T13:56:49;13.00;99.90
41939;DHT22;23057;48.554;14.454;2023-05-10T13:59:20;12.90;99.90
41939;DHT22;23057;48.554;14.454;2023-05-10T14:01:51;12.80;99.90
41939;DHT22;23057;48.554;14.454;2023-05-10T14:04:22;12.80;99.90
41939;DHT22;23057;48.554;14.454;2023-05-10T14:06:53;12.90;99.90
41939;DHT22;23057;48.554;14.454;2023-05-10T14:09:24;12.80;99.90
41939;DHT22;23057;48.554;14.454;2023-05-10T14:11:55;12.90;99.90
41939;DHT22;23057;48.554;14.454;2023-05-10T14:14:26;12.90;99.90
41939;DHT22;23057;48.554;14.454;2023-05-10T14:16:56;12.90;99.90
41939;DHT22;23057;48.554;14.454;2023-05-10T14:19:27;13.00;99.90
41939;DHT22;23057;48.554;14.454;2023-05-10T14:22:00;13.20;99.90
41939;DHT22;23057;48.554;14.454;2023-05-10T14:24:31;13.30;99.90
41939;DHT22;23057;48.554;14.454;2023-05-10T14:27:02;13.30;99.90
41939;DHT22;23057;48.554;14.454;2023-05-10T14:29:33;13.20;99.90
41939;DHT22;23057;48.554;14.454;2023-05-10T14:32:04;13.00;99.90
41939;DHT22;23057;48.554;14.454;2023-05-10T14:34:34;13.10;99.90
41939;DHT22;23057;48.554;14.454;2023-05-10T14:37:05;12.90;99.90
41939;DHT22;23057;48.554;14.454;2023-05-10T14:39:36;13.00;99.90
41939;DHT22;23057;48.554;14.454;2023-05-10T14:42:08;13.10;99.90
41939;DHT22;23057;48.554;14.454;2023-05-10T14:44:39;12.90;99.90
41939;DHT22;23057;48.554;14.454;2023-05-10T14:47:09;12.70;99.90
41939;DHT22;23057;48.554;14.454;2023-05-10T14:49:41;12.70;99.90
41939;DHT22;23057;48.554;14.454;2023-05-10T14:52:11;12.70;99.90
41939;DHT22;23057;48.554;14.454;2023-05-10T14:54:42;12.70;99.90
41939;DHT22;23057;48.554;14.454;2023-05-10T14:57:13;12.60;99.90
41939;DHT22;23057;48.554;14.454;2023-05-10T14:59:44;12.60;99.90
41939;DHT22;23057;48.554;14.454;2023-05-10T15:02:15;12.50;99.90
41939;DHT22;23057;48.554;14.454;2023-05-10T15:04:46;12.40;99.90
41939;DHT22;23057;48.554;14.454;2023-05-10T15:07:17;12.30;99.90
41939;DHT22;23057;48.554;14.454;2023-05-10T15:09:49;12.30;99.90
41939;DHT22;23057;48.554;14.454;2023-05-10T15:12:21;12.40;99.90
41939;DHT22;23057;48.554;14.454;2023-05-10T15:14:52;12.60;99.90
41939;DHT22;23057;48.554;14.454;2023-05-10T15:17:23;12.70;99.90
41939;DHT22;23057;48.554;14.454;2023-05-10T15:19:53;12.80;99.90
41939;DHT22;23057;48.554;14.454;2023-05-10T15:22:24;12.80;99.90
41939;DHT22;23057;48.554;14.454;2023-05-10T15:24:55;12.70;99.90
41939;DHT22;23057;48.554;14.454;2023-05-10T15:27:26;12.60;99.90
41939;DHT22;23057;48.554;14.454;2023-05-10T15:29:57;12.60;99.90
41939;DHT22;23057;48.554;14.454;2023-05-10T15:32:29;12.60;99.90
41939;DHT22;23057;48.554;14.454;2023-05-10T15:35:00;12.50;99.90
41939;DHT22;23057;48.554;14.454;2023-05-10T15:37:30;12.30;99.90
41939;DHT22;23057;48.554;14.454;2023-05-10T15:40:01;12.30;99.90
41939;DHT22;23057;48.554;14.454;2023-05-10T15:42:35;12.20;99.90
41939;DHT22;23057;48.554;14.454;2023-05-10T15:45:06;12.00;99.90
41939;DHT22;23057;48.554;14.454;2023-05-10T15:47:37;12.00;99.90
41939;DHT22;23057;48.554;14.454;2023-05-10T15:50:09;12.00;99.90
41939;DHT22;23057;48.554;14.454;2023-05-10T15:52:40;12.00;99.90
41939;DHT22;23057;48.554;14.454;2023-05-10T15:55:11;11.90;99.90
41939;DHT22;23057;48.554;14.454;2023-05-10T15:57:42;11.90;99.90
41939;DHT22;23057;48.554;14.454;2023-05-10T16:00:13;11.80;99.90
41939;DHT22;23057;48.554;14.454;2023-05-10T16:02:45;11.80;99.90
41939;DHT22;23057;48.554;14.454;2023-05-10T16:05:15;11.80;99.90
41939;DHT22;23057;48.554;14.454;2023-05-10T16:07:46;11.90;99.90
41939;DHT22;23057;48.554;14.454;2023-05-10T16:10:18;11.90;99.90
41939;DHT22;23057;48.554;14.454;2023-05-10T16:12:49;11.90;99.90
41939;DHT22;23057;48.554;14.454;2023-05-10T16:15:20;11.90;99.90
41939;DHT22;23057;48.554;14.454;2023-05-10T16:17:51;11.90;99.90
41939;DHT22;23057;48.554;14.454;2023-05-10T16:20:21;11.80;99.90
41939;DHT22;23057;48.554;14.454;2023-05-10T16:22:53;11.80;99.90
41939;DHT22;23057;48.554;14.454;2023-05-10T16:25:23;11.80;99.90
41939;DHT22;23057;48.554;14.454;2023-05-10T16:27:54;11.80;99.90
41939;DHT22;23057;48.554;14.454;2023-05-10T16:30:25;11.80;99.90
41939;DHT22;23057;48.554;14.454;2023-05-10T16:32:58;11.90;99.90
41939;DHT22;23057;48.554;14.454;2023-05-10T16:35:30;11.80;99.90
41939;DHT22;23057;48.554;14.454;2023-05-10T16:38:01;11.90;99.90
41939;DHT22;23057;48.554;14.454;2023-05-10T16:40:33;11.90;99.90
41939;DHT22;23057;48.554;14.454;2023-05-10T16:43:03;11.90;99.90